Time;durP1;ratioP1;P1;durP2;ratioP2;P2;SDS_P1;SDS_P2;PMS_P1;PMS_P2;Temp;Humidity;BMP_temperature;BMP_pressure;BME280_temperature;BME280_humidity;BME280_pressure;Samples;Min_cycle;Max_cycle;Signal;HPM_P1;HPM_P2
2020/12/28 00:00:35;;;;;;;6.35;1.95;;;0.40;99.90;;;;;;5028358;28;20048;-47
2020/12/28 00:03:01;;;;;;;6.10;2.80;;;0.40;99.90;;;;;;5043325;28;20478;-47
2020/12/28 00:05:28;;;;;;;9.07;2.38;;;0.40;99.90;;;;;;5031262;28;20045;-47
2020/12/28 00:07:54;;;;;;;11.00;3.15;;;0.40;99.90;;;;;;5035281;28;20457;-47
2020/12/28 00:10:22;;;;;;;13.85;3.50;;;0.50;99.90;;;;;;5022203;28;20053;-47
2020/12/28 00:12:49;;;;;;;5.03;1.00;;;0.80;99.90;;;;;;5031110;28;20050;-47
2020/12/28 00:15:21;;;;;;;1.40;0.70;;;0.90;99.90;;;;;;5012575;28;20057;-47
2020/12/28 00:17:52;;;;;;;1.80;0.70;;;1.20;99.90;;;;;;5026934;28;20049;-47
2020/12/28 00:20:21;;;;;;;4.28;0.80;;;1.10;99.90;;;;;;5024969;28;20049;-47
2020/12/28 00:22:48;;;;;;;2.55;0.70;;;1.10;99.90;;;;;;5024363;28;20471;-47
2020/12/28 00:25:21;;;;;;;6.28;0.90;;;1.10;99.90;;;;;;5028526;28;20060;-47
2020/12/28 00:27:48;;;;;;;2.58;0.85;;;1.10;99.90;;;;;;5014424;28;20046;-47
2020/12/28 00:30:16;;;;;;;1.45;0.70;;;1.10;99.90;;;;;;5026689;28;20054;-47
2020/12/28 00:32:44;;;;;;;0.80;0.60;;;1.20;99.90;;;;;;5010411;28;20065;-47
2020/12/28 00:35:11;;;;;;;1.02;0.70;;;1.40;99.90;;;;;;5027912;28;20069;-47
2020/12/28 00:37:39;;;;;;;0.88;0.60;;;1.60;99.90;;;;;;5029061;28;20107;-47
2020/12/28 00:40:07;;;;;;;1.13;0.60;;;1.80;99.90;;;;;;5027820;28;20049;-47
2020/12/28 00:42:34;;;;;;;1.15;0.50;;;1.90;99.90;;;;;;5034419;28;20702;-47
2020/12/28 00:45:02;;;;;;;1.30;0.70;;;1.90;99.90;;;;;;5015548;28;20042;-47
2020/12/28 00:47:28;;;;;;;3.45;0.82;;;2.00;99.90;;;;;;5025744;28;20390;-47
2020/12/28 00:49:55;;;;;;;1.00;0.52;;;2.00;99.90;;;;;;5013120;28;20052;-51
2020/12/28 00:52:22;;;;;;;1.35;0.70;;;2.10;99.90;;;;;;5028249;28;20072;-47
2020/12/28 00:54:48;;;;;;;1.20;0.57;;;2.10;99.90;;;;;;5029054;28;20484;-47
2020/12/28 00:57:15;;;;;;;0.55;0.40;;;2.20;99.90;;;;;;5029632;28;20041;-47
2020/12/28 00:59:42;;;;;;;1.65;0.60;;;2.20;99.90;;;;;;5026646;28;20064;-47
2020/12/28 01:02:08;;;;;;;0.73;0.50;;;2.20;99.90;;;;;;5032514;28;20052;-47
2020/12/28 01:04:35;;;;;;;1.02;0.50;;;2.30;99.90;;;;;;5030998;28;21597;-47
2020/12/28 01:07:01;;;;;;;0.82;0.50;;;2.30;99.90;;;;;;5015601;28;20046;-48
2020/12/28 01:09:28;;;;;;;1.48;0.47;;;2.40;99.90;;;;;;5032718;28;20387;-47
2020/12/28 01:11:57;;;;;;;2.47;0.50;;;2.30;99.90;;;;;;5034118;28;20057;-47
2020/12/28 01:14:24;;;;;;;0.55;0.40;;;2.40;99.90;;;;;;5023463;28;20522;-47
2020/12/28 01:16:50;;;;;;;2.22;0.60;;;2.30;99.90;;;;;;5022715;28;20049;-47
2020/12/28 01:19:16;;;;;;;1.35;0.50;;;2.30;99.90;;;;;;5022792;28;20057;-47
2020/12/28 01:21:43;;;;;;;0.68;0.60;;;2.40;99.90;;;;;;5030637;28;20049;-47
2020/12/28 01:24:09;;;;;;;0.93;0.50;;;2.40;99.90;;;;;;5033536;28;20095;-47
2020/12/28 01:26:36;;;;;;;4.03;0.90;;;2.50;99.90;;;;;;5027001;28;20498;-47
2020/12/28 01:29:02;;;;;;;1.20;0.50;;;2.60;99.90;;;;;;5026748;28;20052;-47
2020/12/28 01:31:29;;;;;;;0.80;0.50;;;2.50;99.90;;;;;;5032805;28;20517;-47
2020/12/28 01:33:56;;;;;;;0.95;0.40;;;2.60;99.90;;;;;;5032577;28;20053;-47
2020/12/28 01:36:22;;;;;;;1.38;0.50;;;2.70;99.90;;;;;;5023282;28;20756;-46
2020/12/28 01:38:49;;;;;;;0.98;0.60;;;2.80;99.90;;;;;;5028308;28;20061;-48
2020/12/28 01:41:15;;;;;;;0.70;0.60;;;2.80;99.90;;;;;;5033204;28;20045;-47
2020/12/28 01:43:42;;;;;;;0.70;0.60;;;2.70;99.90;;;;;;5027238;28;20041;-47
2020/12/28 01:46:10;;;;;;;2.15;0.50;;;2.70;99.90;;;;;;5019202;28;20076;-47
2020/12/28 01:48:36;;;;;;;2.00;0.50;;;2.70;99.90;;;;;;5033167;28;20498;-51
2020/12/28 01:51:03;;;;;;;0.60;0.40;;;2.70;99.90;;;;;;5032879;28;20046;-47
2020/12/28 01:53:30;;;;;;;3.03;0.40;;;2.70;99.90;;;;;;5032619;28;20414;-47
2020/12/28 01:56:12;;;;;;;0.60;0.43;;;2.70;99.90;;;;;;5029393;28;20056;-47
2020/12/28 01:58:39;;;;;;;2.45;0.50;;;2.70;99.90;;;;;;5026253;28;20060;-47
2020/12/28 02:01:09;;;;;;;0.90;0.40;;;2.60;99.90;;;;;;5032333;28;20047;-48
2020/12/28 02:03:35;;;;;;;3.38;0.50;;;2.70;99.90;;;;;;5031019;28;20056;-47
2020/12/28 02:06:02;;;;;;;1.65;0.50;;;2.60;99.90;;;;;;5022599;28;20046;-47
2020/12/28 02:08:29;;;;;;;2.25;0.60;;;2.70;99.90;;;;;;5023106;28;20402;-48
2020/12/28 02:10:56;;;;;;;1.00;0.50;;;2.60;99.90;;;;;;5031027;28;20065;-48
2020/12/28 02:13:22;;;;;;;0.90;0.50;;;2.50;99.90;;;;;;5024753;28;20053;-48
2020/12/28 02:15:49;;;;;;;2.35;0.40;;;2.40;99.90;;;;;;5018189;28;20049;-47
2020/12/28 02:18:20;;;;;;;4.35;0.45;;;2.40;99.90;;;;;;5032051;28;20103;-47
2020/12/28 02:20:47;;;;;;;1.88;0.65;;;2.30;99.90;;;;;;5033719;28;20417;-47
2020/12/28 02:23:14;;;;;;;2.70;0.70;;;2.30;99.90;;;;;;5031907;28;20045;-48
2020/12/28 02:25:40;;;;;;;0.85;0.40;;;2.20;99.90;;;;;;5024856;28;20069;-48
2020/12/28 02:28:06;;;;;;;0.52;0.40;;;2.10;99.90;;;;;;5018195;28;20502;-49
2020/12/28 02:30:35;;;;;;;0.30;0.30;;;2.00;99.90;;;;;;5026372;28;20434;-49
2020/12/28 02:33:02;;;;;;;0.82;0.70;;;2.00;99.90;;;;;;5015412;28;20057;-48
2020/12/28 02:35:29;;;;;;;1.80;0.40;;;1.90;99.90;;;;;;5028548;28;20379;-48
2020/12/28 02:37:55;;;;;;;3.60;0.50;;;1.90;99.90;;;;;;5030648;28;20136;-48
2020/12/28 02:40:21;;;;;;;1.50;0.40;;;1.80;99.90;;;;;;5023805;28;20049;-49
2020/12/28 02:42:48;;;;;;;1.20;0.40;;;1.70;99.90;;;;;;5022058;28;20049;-48
2020/12/28 02:45:15;;;;;;;1.88;0.50;;;1.70;99.90;;;;;;5032150;28;20076;-49
2020/12/28 02:47:42;;;;;;;1.60;0.40;;;1.60;99.90;;;;;;5029928;28;20490;-48
2020/12/28 02:50:11;;;;;;;0.93;0.50;;;1.50;99.90;;;;;;5016188;28;20042;-49
2020/12/28 02:52:37;;;;;;;6.20;0.50;;;1.40;99.90;;;;;;5027555;28;22407;-49
2020/12/28 02:55:03;;;;;;;0.40;0.40;;;1.40;99.90;;;;;;5030738;28;20045;-48
2020/12/28 02:57:30;;;;;;;1.75;0.50;;;1.30;99.90;;;;;;5022426;28;20046;-49
2020/12/28 02:59:56;;;;;;;2.05;0.60;;;1.30;99.90;;;;;;5021004;28;20486;-48
2020/12/28 03:02:23;;;;;;;1.00;0.40;;;1.20;99.90;;;;;;5019857;28;20046;-48
2020/12/28 03:04:49;;;;;;;1.77;0.47;;;1.20;99.90;;;;;;5030057;28;20045;-48
2020/12/28 03:07:16;;;;;;;1.05;0.50;;;1.10;99.90;;;;;;5030176;28;20049;-48
2020/12/28 03:09:42;;;;;;;1.17;0.45;;;1.20;99.90;;;;;;5026940;28;20403;-47
2020/12/28 03:12:09;;;;;;;0.85;0.43;;;1.10;99.90;;;;;;5016553;28;20050;-48
2020/12/28 03:14:35;;;;;;;0.80;0.50;;;1.20;99.90;;;;;;5029790;28;20050;-48
2020/12/28 03:17:02;;;;;;;1.83;0.60;;;1.20;99.90;;;;;;5030312;28;20050;-48
2020/12/28 03:19:31;;;;;;;0.82;0.50;;;1.20;99.90;;;;;;5032920;28;20053;-48
2020/12/28 03:21:58;;;;;;;0.98;0.50;;;1.20;99.90;;;;;;5034105;28;20422;-50
2020/12/28 03:24:25;;;;;;;1.70;0.60;;;1.30;99.90;;;;;;5029580;28;20053;-49
2020/12/28 03:26:52;;;;;;;1.17;0.50;;;1.30;99.90;;;;;;5027929;28;20062;-48
2020/12/28 03:29:19;;;;;;;1.95;0.60;;;1.30;99.90;;;;;;5020315;28;20038;-48
2020/12/28 03:31:46;;;;;;;4.00;0.60;;;1.40;99.90;;;;;;5023760;28;20057;-48
2020/12/28 03:34:12;;;;;;;1.30;0.68;;;1.40;99.90;;;;;;5028241;28;20068;-49
2020/12/28 03:36:39;;;;;;;2.67;0.43;;;1.40;99.90;;;;;;5030191;28;20057;-48
2020/12/28 03:39:06;;;;;;;0.68;0.50;;;1.40;99.90;;;;;;5028980;28;20056;-50
2020/12/28 03:41:33;;;;;;;1.25;0.60;;;1.30;99.90;;;;;;5019842;28;20057;-48
2020/12/28 03:44:00;;;;;;;1.60;0.60;;;1.40;99.90;;;;;;5028182;28;20045;-48
2020/12/28 03:46:26;;;;;;;1.58;0.60;;;1.40;99.90;;;;;;5029472;28;20064;-50
2020/12/28 03:48:53;;;;;;;0.60;0.50;;;1.40;99.90;;;;;;5023858;28;20038;-48
2020/12/28 03:51:19;;;;;;;3.15;0.70;;;1.40;99.90;;;;;;5028178;28;20056;-48
2020/12/28 03:53:46;;;;;;;1.13;0.50;;;1.40;99.90;;;;;;5022896;28;20058;-49
2020/12/28 03:56:12;;;;;;;1.80;0.50;;;1.40;99.90;;;;;;5023277;28;20054;-49
2020/12/28 03:58:39;;;;;;;0.73;0.55;;;1.50;99.90;;;;;;5031246;28;20461;-48
2020/12/28 04:01:06;;;;;;;2.95;0.55;;;1.50;99.90;;;;;;5028815;28;20045;-48
2020/12/28 04:03:33;;;;;;;1.38;0.60;;;1.60;99.90;;;;;;5029150;28;20395;-48
2020/12/28 04:06:02;;;;;;;2.00;0.50;;;1.60;99.90;;;;;;5026713;28;20056;-49
2020/12/28 04:08:29;;;;;;;2.15;0.60;;;1.70;99.90;;;;;;5017724;28;20064;-50
2020/12/28 04:10:55;;;;;;;3.17;1.35;;;1.90;99.90;;;;;;5019760;28;20053;-48
2020/12/28 04:13:22;;;;;;;0.88;0.60;;;2.00;99.90;;;;;;5022136;28;20057;-49
2020/12/28 04:15:49;;;;;;;1.88;0.60;;;2.20;99.90;;;;;;5029273;28;20402;-49
2020/12/28 04:18:16;;;;;;;0.60;0.55;;;2.10;99.90;;;;;;5027761;28;20061;-48
2020/12/28 04:20:43;;;;;;;0.80;0.60;;;2.20;99.90;;;;;;5030294;28;20049;-48
2020/12/28 04:23:10;;;;;;;0.82;0.60;;;2.10;99.90;;;;;;5023966;28;20046;-48
2020/12/28 04:25:36;;;;;;;4.30;1.00;;;2.10;99.90;;;;;;5017509;28;20049;-48
2020/12/28 04:28:03;;;;;;;1.00;0.60;;;2.20;99.90;;;;;;5019841;28;20046;-48
2020/12/28 04:30:29;;;;;;;0.60;0.60;;;2.20;99.90;;;;;;5022113;28;20046;-49
2020/12/28 04:32:56;;;;;;;5.70;0.60;;;2.30;99.90;;;;;;5017145;28;20125;-48
2020/12/28 04:35:22;;;;;;;3.53;0.70;;;2.40;99.90;;;;;;5028217;28;20073;-49
2020/12/28 04:37:49;;;;;;;1.85;0.60;;;2.50;99.90;;;;;;5015359;28;20068;-48
2020/12/28 04:40:16;;;;;;;5.03;0.70;;;2.50;99.90;;;;;;5032970;28;20140;-48
2020/12/28 04:42:43;;;;;;;3.63;0.50;;;2.70;99.90;;;;;;5032474;28;20053;-48
2020/12/28 04:45:10;;;;;;;3.38;0.70;;;2.90;99.90;;;;;;5033062;28;20386;-50
2020/12/28 04:47:37;;;;;;;3.25;0.50;;;3.10;99.90;;;;;;5039734;28;20041;-48
2020/12/28 04:50:07;;;;;;;0.82;0.70;;;3.20;99.90;;;;;;5033167;28;20049;-48
2020/12/28 04:52:34;;;;;;;0.60;0.47;;;3.40;99.90;;;;;;5031521;28;20379;-49
2020/12/28 04:55:01;;;;;;;2.85;1.58;;;3.60;99.90;;;;;;4996752;28;20058;-48
2020/12/28 04:57:28;;;;;;;1.25;0.32;;;3.70;99.90;;;;;;5032600;28;20053;-49
2020/12/28 04:59:56;;;;;;;3.85;0.40;;;3.90;99.90;;;;;;5032657;28;20049;-49
2020/12/28 05:02:23;;;;;;;0.75;0.30;;;4.00;99.90;;;;;;5023416;28;20045;-48
2020/12/28 05:04:50;;;;;;;0.50;0.30;;;4.10;99.90;;;;;;5025900;28;20064;-49
2020/12/28 05:07:17;;;;;;;0.60;0.60;;;4.20;99.90;;;;;;5026432;28;20046;-49
2020/12/28 05:09:44;;;;;;;0.50;0.30;;;4.30;99.90;;;;;;5027923;28;20050;-48
2020/12/28 05:12:11;;;;;;;1.05;0.30;;;4.40;99.90;;;;;;5015648;28;20057;-48
2020/12/28 05:14:37;;;;;;;0.57;0.30;;;4.50;99.90;;;;;;5030744;28;20699;-48
2020/12/28 05:17:08;;;;;;;3.80;0.20;;;4.60;99.90;;;;;;5036491;28;20053;-50
2020/12/28 05:19:35;;;;;;;0.70;0.30;;;4.70;99.90;;;;;;5022961;28;20423;-49
2020/12/28 05:22:03;;;;;;;2.63;0.30;;;4.70;99.90;;;;;;5025161;28;20045;-48
2020/12/28 05:24:30;;;;;;;1.50;0.30;;;4.70;99.90;;;;;;5017446;28;20042;-48
2020/12/28 05:26:58;;;;;;;0.73;0.47;;;4.50;99.90;;;;;;5026592;28;20546;-48
2020/12/28 05:29:27;;;;;;;6.28;0.50;;;4.50;99.90;;;;;;5026597;28;20046;-48
2020/12/28 05:31:55;;;;;;;2.42;0.40;;;4.60;99.90;;;;;;5027806;28;20046;-49
2020/12/28 05:34:24;;;;;;;2.50;0.20;;;4.70;99.90;;;;;;5020474;28;20058;-49
2020/12/28 05:36:53;;;;;;;0.90;0.20;;;4.80;99.90;;;;;;5030786;28;20612;-49
2020/12/28 05:39:22;;;;;;;2.67;0.30;;;4.90;99.90;;;;;;5030179;28;20053;-49
2020/12/28 05:42:09;;;;;;;1.63;0.30;;;4.90;99.90;;;;;;5016561;28;20061;-49
2020/12/28 05:44:37;;;;;;;9.02;0.60;;;5.00;99.90;;;;;;5026398;28;20049;-48
2020/12/28 05:47:06;;;;;;;2.58;0.40;;;5.00;99.90;;;;;;5034970;28;20534;-48
2020/12/28 05:49:38;;;;;;;3.03;0.32;;;5.00;99.90;;;;;;5031735;28;20057;-48
2020/12/28 05:52:06;;;;;;;2.72;0.75;;;5.00;99.90;;;;;;5029856;28;20062;-48
2020/12/28 05:54:34;;;;;;;1.42;0.20;;;5.10;99.90;;;;;;5020877;28;20053;-48
2020/12/28 05:57:01;;;;;;;2.08;0.20;;;5.10;99.90;;;;;;5028101;28;20426;-48
2020/12/28 05:59:29;;;;;;;5.68;0.20;;;5.20;99.90;;;;;;5018873;28;20394;-49
2020/12/28 06:01:58;;;;;;;3.40;0.20;;;5.30;99.90;;;;;;5030653;28;20063;-50
2020/12/28 06:04:24;;;;;;;2.25;0.20;;;5.40;99.90;;;;;;5030402;28;20054;-48
2020/12/28 06:06:57;;;;;;;0.25;0.10;;;5.50;99.90;;;;;;5033569;28;20092;-50
2020/12/28 06:09:24;;;;;;;4.05;0.43;;;5.50;99.90;;;;;;5025442;28;20509;-48
2020/12/28 06:12:05;;;;;;;0.52;0.13;;;5.50;99.90;;;;;;5031344;28;20053;-49
2020/12/28 06:14:39;;;;;;;5.03;0.10;;;5.70;99.90;;;;;;5031668;28;20061;-48
2020/12/28 06:17:10;;;;;;;2.38;0.20;;;5.80;99.90;;;;;;5034968;28;20052;-49
2020/12/28 06:19:38;;;;;;;3.17;0.22;;;6.00;99.90;;;;;;5035423;28;20057;-49
2020/12/28 06:22:22;;;;;;;0.88;0.10;;;6.20;99.90;;;;;;5023992;28;20064;-48
2020/12/28 06:25:08;;;;;;;2.28;0.20;;;6.10;99.90;;;;;;5031696;28;20046;-49
2020/12/28 06:27:38;;;;;;;0.90;0.20;;;6.00;99.90;;;;;;5030932;28;20049;-49
2020/12/28 06:30:12;;;;;;;2.40;0.22;;;6.00;99.90;;;;;;5031838;28;20489;-49
2020/12/28 06:32:40;;;;;;;1.35;0.20;;;6.00;99.90;;;;;;5021987;28;20513;-48
2020/12/28 06:35:09;;;;;;;0.80;0.10;;;6.10;99.90;;;;;;5022755;28;20045;-49
2020/12/28 06:37:50;;;;;;;1.67;0.20;;;6.00;99.90;;;;;;5034541;28;20053;-50
2020/12/28 06:40:29;;;;;;;6.15;0.85;;;6.00;99.90;;;;;;5029661;28;20050;-50
2020/12/28 06:43:17;;;;;;;14.85;0.77;;;6.20;99.90;;;;;;5016430;28;20085;-51
2020/12/28 06:45:47;;;;;;;2.17;0.10;;;6.20;99.90;;;;;;5028124;28;20052;-51
2020/12/28 06:48:21;;;;;;;1.48;0.15;;;6.30;99.90;;;;;;5024788;28;20056;-52
2020/12/28 06:50:48;;;;;;;1.48;0.22;;;6.30;99.90;;;;;;5030804;28;20068;-51
2020/12/28 06:53:23;;;;;;;3.92;0.20;;;6.10;99.90;;;;;;5028993;28;20132;-51
2020/12/28 06:55:49;;;;;;;3.47;0.40;;;6.10;99.90;;;;;;5029583;28;20053;-50
2020/12/28 06:58:16;;;;;;;3.08;0.20;;;6.10;99.90;;;;;;5028963;28;20491;-50
2020/12/28 07:00:43;;;;;;;6.30;0.20;;;6.10;99.90;;;;;;5021007;28;20064;-50
2020/12/28 07:03:14;;;;;;;1.63;0.20;;;6.00;99.90;;;;;;5018333;28;20046;-51
2020/12/28 07:05:40;;;;;;;2.30;0.20;;;5.90;99.90;;;;;;5025613;28;20046;-50
2020/12/28 07:08:07;;;;;;;1.23;0.10;;;5.90;99.90;;;;;;5014154;28;20137;-51
2020/12/28 07:10:34;;;;;;;0.65;0.10;;;5.90;99.90;;;;;;5029402;28;20056;-50
2020/12/28 07:13:07;;;;;;;2.83;0.30;;;5.80;99.90;;;;;;5029847;28;20111;-51
2020/12/28 07:15:34;;;;;;;5.35;0.20;;;5.80;99.90;;;;;;5021877;28;20076;-50
2020/12/28 07:18:05;;;;;;;1.10;0.10;;;5.90;99.90;;;;;;5020753;28;20064;-50
2020/12/28 07:20:32;;;;;;;1.05;0.10;;;5.90;99.90;;;;;;5030322;28;20367;-50
2020/12/28 07:22:59;;;;;;;1.45;0.10;;;6.00;99.90;;;;;;5025950;28;20450;-50
2020/12/28 07:25:26;;;;;;;1.75;0.20;;;6.00;99.90;;;;;;5013610;28;20571;-50
2020/12/28 07:27:54;;;;;;;3.20;0.20;;;6.00;99.90;;;;;;5025716;28;20096;-50
2020/12/28 07:30:20;;;;;;;0.98;0.20;;;6.00;99.90;;;;;;5016574;28;20510;-51
2020/12/28 07:32:47;;;;;;;2.38;0.30;;;6.00;99.90;;;;;;5029749;28;20494;-50
2020/12/28 07:35:13;;;;;;;2.05;0.10;;;6.00;99.90;;;;;;5023057;28;20045;-52
2020/12/28 07:37:42;;;;;;;1.48;0.20;;;6.00;99.90;;;;;;5017270;28;20054;-50
2020/12/28 07:40:09;;;;;;;0.45;0.10;;;6.00;99.90;;;;;;5025423;28;20041;-50
2020/12/28 07:42:36;;;;;;;5.10;0.20;;;6.00;99.90;;;;;;5029830;28;20051;-51
2020/12/28 07:45:10;;;;;;;1.85;0.10;;;6.00;99.90;;;;;;5025043;28;20045;-52
2020/12/28 07:47:54;;;;;;;0.47;0.15;;;6.20;99.90;;;;;;5016719;28;20033;-50
2020/12/28 07:50:21;;;;;;;1.15;0.13;;;6.20;99.90;;;;;;5020905;28;20054;-50
2020/12/28 07:53:02;;;;;;;1.48;0.10;;;6.20;99.90;;;;;;5023220;28;20706;-52
2020/12/28 07:55:36;;;;;;;0.60;0.20;;;6.20;99.90;;;;;;5031115;28;20459;-50
2020/12/28 07:58:43;;;;;;;0.63;0.30;;;6.30;99.90;;;;;;5029785;28;20049;-52
2020/12/28 08:01:38;;;;;;;4.50;0.20;;;6.30;99.90;;;;;;5006156;28;20054;-50
2020/12/28 08:04:07;;;;;;;0.45;0.20;;;6.40;99.90;;;;;;5029243;28;20049;-50
2020/12/28 08:06:36;;;;;;;1.05;0.25;;;6.40;99.90;;;;;;5028523;28;20051;-51
2020/12/28 08:09:04;;;;;;;2.15;0.57;;;6.50;99.90;;;;;;5029293;28;20479;-51
2020/12/28 08:11:32;;;;;;;1.63;0.20;;;6.60;99.90;;;;;;5028956;28;20053;-50
2020/12/28 08:14:08;;;;;;;3.67;0.50;;;6.70;99.90;;;;;;5022347;28;20057;-51
2020/12/28 08:16:34;;;;;;;2.50;0.10;;;6.80;99.90;;;;;;5015400;28;20050;-51
2020/12/28 08:19:00;;;;;;;1.65;0.10;;;6.80;99.90;;;;;;5026329;28;20057;-53
2020/12/28 08:21:41;;;;;;;0.40;0.10;;;6.90;99.90;;;;;;5011317;28;20054;-51
2020/12/28 08:24:20;;;;;;;2.80;0.13;;;7.00;99.90;;;;;;5022344;28;20050;-50
2020/12/28 08:26:48;;;;;;;2.42;0.25;;;7.00;99.90;;;;;;5018837;28;20053;-50
2020/12/28 08:29:15;;;;;;;2.38;0.10;;;7.00;99.90;;;;;;5015213;28;20487;-51
2020/12/28 08:31:42;;;;;;;4.03;0.10;;;7.00;99.90;;;;;;5025176;28;20049;-50
2020/12/28 08:34:10;;;;;;;4.57;0.20;;;7.00;99.90;;;;;;5029057;28;20068;-52
2020/12/28 08:36:39;;;;;;;2.13;0.20;;;7.00;99.90;;;;;;5024081;28;20050;-52
2020/12/28 08:39:19;;;;;;;2.83;0.20;;;7.10;99.90;;;;;;5015507;28;20084;-50
2020/12/28 08:41:51;;;;;;;3.17;0.20;;;7.10;99.90;;;;;;5029532;28;20050;-50
2020/12/28 08:44:32;;;;;;;3.42;0.60;;;7.10;99.90;;;;;;5028576;28;20049;-51
2020/12/28 08:47:02;;;;;;;2.25;0.20;;;7.10;99.90;;;;;;5029099;28;20053;-53
2020/12/28 08:49:31;;;;;;;2.97;0.10;;;7.10;99.90;;;;;;5025176;28;20062;-51
2020/12/28 08:52:18;;;;;;;2.58;0.28;;;7.20;99.90;;;;;;5026165;28;20064;-51
2020/12/28 08:55:00;;;;;;;7.45;0.50;;;7.20;99.90;;;;;;5018951;28;20054;-54
2020/12/28 08:57:30;;;;;;;5.20;0.25;;;7.20;99.90;;;;;;5023679;28;20053;-51
2020/12/28 08:59:59;;;;;;;5.78;0.75;;;7.10;99.90;;;;;;5026753;28;20046;-51
2020/12/28 09:02:26;;;;;;;9.70;0.50;;;7.10;99.90;;;;;;5028057;28;20490;-51
2020/12/28 09:04:53;;;;;;;4.30;0.30;;;7.10;99.90;;;;;;5016098;28;20154;-51
2020/12/28 09:07:22;;;;;;;1.63;0.20;;;7.10;99.90;;;;;;5028451;28;20052;-51
2020/12/28 09:09:49;;;;;;;6.82;0.30;;;7.10;99.90;;;;;;5028100;28;20049;-54
2020/12/28 09:12:18;;;;;;;7.70;0.30;;;7.10;99.90;;;;;;5028089;28;20053;-51
2020/12/28 09:14:45;;;;;;;3.50;0.22;;;7.10;99.90;;;;;;5024854;28;20045;-52
2020/12/28 09:17:15;;;;;;;3.97;0.20;;;7.00;99.90;;;;;;5028775;28;20479;-51
2020/12/28 09:19:42;;;;;;;3.67;0.22;;;7.10;99.90;;;;;;5027567;28;20067;-51
2020/12/28 09:22:08;;;;;;;2.90;0.40;;;7.00;99.90;;;;;;5033021;28;20777;-52
2020/12/28 09:24:35;;;;;;;3.15;0.30;;;7.00;99.90;;;;;;5024324;28;20388;-50
2020/12/28 09:27:01;;;;;;;4.50;0.25;;;6.90;99.90;;;;;;5022684;28;20049;-51
2020/12/28 09:29:28;;;;;;;3.40;0.20;;;6.90;99.90;;;;;;5020814;28;20061;-51
2020/12/28 09:31:54;;;;;;;4.40;0.32;;;6.90;99.90;;;;;;5027123;28;20495;-50
2020/12/28 09:34:21;;;;;;;2.90;1.17;;;7.00;99.90;;;;;;5015963;28;20060;-50
2020/12/28 09:37:02;;;;;;;6.70;0.70;;;7.00;99.90;;;;;;5025322;28;20049;-52
2020/12/28 09:39:29;;;;;;;3.70;0.70;;;7.00;99.90;;;;;;5018563;28;20059;-51
2020/12/28 09:41:56;;;;;;;5.60;0.88;;;7.00;99.90;;;;;;5022964;28;20050;-51
2020/12/28 09:44:23;;;;;;;5.28;0.40;;;6.90;99.90;;;;;;5023163;28;20042;-51
2020/12/28 09:46:54;;;;;;;6.03;1.23;;;6.90;99.90;;;;;;5032737;28;20049;-50
2020/12/28 09:49:22;;;;;;;4.18;0.35;;;6.90;99.90;;;;;;5029604;28;20530;-50
2020/12/28 09:51:53;;;;;;;3.22;0.50;;;6.90;99.90;;;;;;5031331;28;20059;-51
2020/12/28 09:54:22;;;;;;;6.65;0.60;;;7.00;99.90;;;;;;5032590;28;20056;-51
2020/12/28 09:57:05;;;;;;;4.40;0.60;;;7.00;99.90;;;;;;5030347;28;20045;-51
2020/12/28 09:59:37;;;;;;;6.50;0.50;;;7.00;99.90;;;;;;5018478;28;20061;-51
2020/12/28 10:02:04;;;;;;;6.85;0.20;;;7.00;99.90;;;;;;5026080;28;20045;-51
2020/12/28 10:04:31;;;;;;;4.93;0.50;;;7.00;99.90;;;;;;5023011;28;20061;-51
2020/12/28 10:06:58;;;;;;;4.03;0.32;;;7.00;99.90;;;;;;5030604;28;20049;-51
2020/12/28 10:09:24;;;;;;;5.88;0.85;;;7.00;99.90;;;;;;5031011;28;20379;-51
2020/12/28 10:11:52;;;;;;;4.63;0.40;;;7.00;99.90;;;;;;5030671;28;20045;-51
2020/12/28 10:14:18;;;;;;;5.32;0.90;;;7.00;99.90;;;;;;5030920;28;20056;-51
2020/12/28 10:16:45;;;;;;;2.83;0.30;;;7.10;99.90;;;;;;5017987;28;20045;-50
2020/12/28 10:19:11;;;;;;;6.03;0.38;;;7.10;99.90;;;;;;5026602;28;20045;-51
2020/12/28 10:21:38;;;;;;;7.75;0.63;;;7.00;99.90;;;;;;5032022;28;20049;-51
2020/12/28 10:24:04;;;;;;;3.67;0.30;;;7.10;99.90;;;;;;5026814;28;20065;-51
2020/12/28 10:26:31;;;;;;;2.67;0.30;;;7.10;99.90;;;;;;5017925;28;20065;-51
2020/12/28 10:28:58;;;;;;;1.77;0.20;;;7.10;99.90;;;;;;5023240;28;20046;-51
2020/12/28 10:31:25;;;;;;;3.75;0.50;;;7.10;99.90;;;;;;5020463;28;20063;-51
2020/12/28 10:33:54;;;;;;;4.88;0.30;;;7.10;99.90;;;;;;5031357;28;20425;-51
2020/12/28 10:36:25;;;;;;;4.90;0.25;;;7.20;99.90;;;;;;5028891;28;20060;-51
2020/12/28 10:39:12;;;;;;;4.88;0.52;;;7.20;99.90;;;;;;5014891;28;20045;-51
2020/12/28 10:41:40;;;;;;;6.60;0.20;;;7.10;99.90;;;;;;5029831;28;20047;-51
2020/12/28 10:44:06;;;;;;;2.60;0.38;;;7.20;99.90;;;;;;5019540;28;20038;-51
2020/12/28 10:46:36;;;;;;;5.13;0.40;;;7.20;99.90;;;;;;5020462;28;20058;-51
2020/12/28 10:49:04;;;;;;;5.60;0.30;;;7.20;99.90;;;;;;5022035;28;20052;-52
2020/12/28 10:51:31;;;;;;;3.63;0.30;;;7.20;99.90;;;;;;5030241;28;20462;-50
2020/12/28 10:53:57;;;;;;;5.00;0.25;;;7.30;99.90;;;;;;5030074;28;20513;-51
2020/12/28 10:56:29;;;;;;;0.80;0.20;;;7.20;99.90;;;;;;5030830;28;20096;-51
2020/12/28 10:58:56;;;;;;;2.00;0.20;;;7.20;99.90;;;;;;5026978;28;20057;-51
2020/12/28 11:01:24;;;;;;;4.00;0.22;;;7.20;99.90;;;;;;5027248;28;20046;-51
2020/12/28 11:03:52;;;;;;;2.55;0.10;;;7.30;99.90;;;;;;5026864;28;20042;-51
2020/12/28 11:06:19;;;;;;;3.50;0.25;;;7.20;99.90;;;;;;5026106;28;20049;-52
2020/12/28 11:08:46;;;;;;;5.72;0.52;;;7.20;99.90;;;;;;5025542;28;20627;-51
2020/12/28 11:11:16;;;;;;;3.45;0.38;;;7.20;99.90;;;;;;5026812;28;20049;-51
2020/12/28 11:13:44;;;;;;;5.45;0.50;;;7.20;99.90;;;;;;5025813;28;20041;-50
2020/12/28 11:16:10;;;;;;;5.80;0.47;;;7.20;99.90;;;;;;5023073;28;20491;-51
2020/12/28 11:18:38;;;;;;;3.38;0.40;;;7.20;99.90;;;;;;5019590;28;20037;-51
2020/12/28 11:21:05;;;;;;;1.20;0.20;;;7.20;99.90;;;;;;5025541;28;20146;-50
2020/12/28 11:26:17;;;;;;;3.35;0.30;;;7.30;99.90;;;;;;5021138;28;20410;-50
2020/12/28 11:28:44;;;;;;;2.17;0.30;;;7.20;99.90;;;;;;5024852;28;20050;-51
2020/12/28 11:31:15;;;;;;;1.23;0.50;;;7.20;99.90;;;;;;5028011;28;20124;-51
2020/12/28 11:33:42;;;;;;;4.57;0.40;;;7.20;99.90;;;;;;5025109;28;20041;-50
2020/12/28 11:36:10;;;;;;;3.65;0.88;;;7.20;99.90;;;;;;5017280;28;20475;-54
2020/12/28 11:38:37;;;;;;;3.78;0.40;;;7.10;99.90;;;;;;5030651;28;20053;-50
2020/12/28 11:41:04;;;;;;;3.35;0.30;;;7.10;99.90;;;;;;5026022;28;20045;-50
2020/12/28 11:43:31;;;;;;;3.05;0.20;;;7.10;99.90;;;;;;5028048;28;20075;-50
2020/12/28 11:45:58;;;;;;;1.30;0.30;;;7.10;99.90;;;;;;5029410;28;20041;-50
2020/12/28 11:48:24;;;;;;;1.65;0.28;;;7.10;99.90;;;;;;5014573;28;20450;-50
2020/12/28 11:50:53;;;;;;;2.72;0.40;;;7.10;99.90;;;;;;5026760;28;20046;-50
2020/12/28 11:53:20;;;;;;;2.30;0.30;;;7.10;99.90;;;;;;5021745;28;20064;-50
2020/12/28 11:56:05;;;;;;;0.32;0.15;;;7.00;99.90;;;;;;5028476;28;20656;-50
2020/12/28 11:58:36;;;;;;;0.10;0.00;;;7.00;99.90;;;;;;5027917;28;20108;-49
2020/12/28 12:01:14;;;;;;;0.30;0.15;;;7.00;99.90;;;;;;5029190;28;20387;-50
2020/12/28 12:03:44;;;;;;;0.50;0.35;;;6.80;99.90;;;;;;5026040;28;20056;-54
2020/12/28 12:06:21;;;;;;;1.08;0.10;;;6.70;99.90;;;;;;5013922;28;20136;-51
2020/12/28 12:11:35;;;;;;;0.30;0.10;;;6.40;99.90;;;;;;5019387;28;20053;-53
2020/12/28 12:14:03;;;;;;;0.43;0.30;;;6.30;99.90;;;;;;5030205;28;20477;-51
2020/12/28 12:16:29;;;;;;;4.35;2.63;;;6.20;99.90;;;;;;5026988;28;20045;-50
2020/12/28 12:18:56;;;;;;;0.82;0.75;;;6.20;99.90;;;;;;5018492;28;20050;-50
2020/12/28 12:21:23;;;;;;;1.48;0.55;;;6.20;99.90;;;;;;5028155;28;20057;-51
2020/12/28 12:23:49;;;;;;;0.52;0.20;;;6.10;99.90;;;;;;5028586;28;20466;-50
2020/12/28 12:26:23;;;;;;;0.30;0.10;;;6.00;99.90;;;;;;5019176;28;20069;-51
2020/12/28 12:28:54;;;;;;;0.30;0.10;;;5.60;99.90;;;;;;5022467;28;20052;-50
2020/12/28 12:31:21;;;;;;;3.40;0.20;;;5.40;99.90;;;;;;5030223;28;20049;-50
2020/12/28 12:33:49;;;;;;;0.30;0.20;;;5.40;99.90;;;;;;5026897;28;20045;-50
2020/12/28 12:36:16;;;;;;;1.17;0.10;;;5.40;99.90;;;;;;5016997;28;20132;-51
2020/12/28 12:38:44;;;;;;;1.30;0.20;;;5.30;99.90;;;;;;5022883;28;20049;-51
2020/12/28 12:41:15;;;;;;;1.90;0.30;;;5.30;99.90;;;;;;5019141;28;20096;-51
2020/12/28 12:43:41;;;;;;;0.40;0.20;;;5.30;99.90;;;;;;5023591;28;20438;-51
2020/12/28 12:46:09;;;;;;;0.50;0.20;;;5.30;99.90;;;;;;5022760;28;20115;-59
2020/12/28 12:48:39;;;;;;;0.13;0.10;;;5.40;99.90;;;;;;5032212;28;20078;-58
2020/12/28 12:51:06;;;;;;;1.00;0.30;;;5.30;99.90;;;;;;5026425;28;20411;-58
2020/12/28 12:53:33;;;;;;;0.63;0.40;;;5.40;99.90;;;;;;5028694;28;20053;-57
2020/12/28 12:56:00;;;;;;;0.40;0.10;;;5.40;99.90;;;;;;5028547;28;20053;-56
2020/12/28 12:58:26;;;;;;;2.75;0.10;;;5.40;99.90;;;;;;5032640;28;20410;-57
2020/12/28 13:00:53;;;;;;;0.90;0.30;;;5.40;99.90;;;;;;5033363;28;20402;-56
2020/12/28 13:03:20;;;;;;;0.98;0.28;;;5.40;99.90;;;;;;5030885;28;20060;-57
2020/12/28 13:05:46;;;;;;;0.65;0.20;;;5.40;99.90;;;;;;5033169;28;20438;-57
2020/12/28 13:08:13;;;;;;;0.95;0.30;;;5.50;99.90;;;;;;5030818;28;20490;-57
2020/12/28 13:10:39;;;;;;;0.30;0.20;;;5.50;99.90;;;;;;5017546;28;20046;-57